createdAt,value
2016-10-10T00:00:27.385Z,1025.95
2016-10-10T00:01:27.407Z,1025.94
2016-10-10T00:02:27.423Z,1025.94
2016-10-10T00:03:27.439Z,1025.96
2016-10-10T00:04:27.455Z,1025.93
2016-10-10T00:05:27.473Z,1025.91
2016-10-10T00:06:27.506Z,1025.9
2016-10-10T00:07:27.506Z,1025.88
2016-10-10T00:08:27.526Z,1025.9
2016-10-10T00:09:27.547Z,1025.88
2016-10-10T00:10:27.564Z,1025.87
2016-10-10T00:11:27.574Z,1025.89
2016-10-10T00:12:27.590Z,1025.9
2016-10-10T00:13:27.613Z,1025.89
2016-10-10T00:14:27.625Z,1025.89
2016-10-10T00:15:27.641Z,1025.87
2016-10-10T00:16:27.657Z,1025.89
2016-10-10T00:17:27.673Z,1025.89
2016-10-10T00:18:27.696Z,1025.92
2016-10-10T00:19:27.711Z,1025.93
2016-10-10T00:20:27.727Z,1025.91
2016-10-10T00:21:27.748Z,1025.9
2016-10-10T00:22:27.760Z,1025.89
2016-10-10T00:23:27.779Z,1025.91
2016-10-10T00:24:27.795Z,1025.91
2016-10-10T00:25:27.815Z,1025.94
2016-10-10T00:26:27.829Z,1025.93
2016-10-10T00:27:27.846Z,1025.92
2016-10-10T00:28:27.856Z,1025.92
2016-10-10T00:29:27.878Z,1025.89
2016-10-10T00:30:27.897Z,1025.91
2016-10-10T00:31:27.918Z,1025.9
2016-10-10T00:32:27.926Z,1025.91
2016-10-10T00:33:27.945Z,1025.93
2016-10-10T00:34:27.955Z,1025.89
2016-10-10T00:35:27.974Z,1025.9
2016-10-10T00:36:27.991Z,1025.9
2016-10-10T00:37:28.011Z,1025.93
2016-10-10T00:38:28.026Z,1025.9
2016-10-10T00:39:28.040Z,1025.9
2016-10-10T00:40:28.060Z,1025.9
2016-10-10T00:41:28.074Z,1025.89
2016-10-10T00:42:28.099Z,1025.85
2016-10-10T00:43:28.103Z,1025.87
2016-10-10T00:44:28.122Z,1025.9
2016-10-10T00:45:28.138Z,1025.89
2016-10-10T00:46:28.159Z,1025.85
2016-10-10T00:47:28.177Z,1025.86
2016-10-10T00:48:28.189Z,1025.86
2016-10-10T00:49:28.206Z,1025.85
2016-10-10T00:50:28.228Z,1025.83
2016-10-10T00:51:28.238Z,1025.86
2016-10-10T00:52:28.252Z,1025.91
2016-10-10T00:53:28.269Z,1025.89
2016-10-10T00:54:28.287Z,1025.89
2016-10-10T00:55:28.302Z,1025.9
2016-10-10T00:56:28.329Z,1025.91
2016-10-10T00:57:28.337Z,1025.91
2016-10-10T00:58:28.360Z,1025.89
2016-10-10T00:59:28.380Z,1025.93
2016-10-10T01:00:28.389Z,1025.91
2016-10-10T01:01:28.401Z,1025.94
2016-10-10T01:02:28.418Z,1025.95
2016-10-10T01:03:28.433Z,1025.94
2016-10-10T01:04:28.450Z,1025.96
2016-10-10T01:05:28.466Z,1025.96
2016-10-10T01:06:28.489Z,1025.94
2016-10-10T01:07:28.501Z,1025.94
2016-10-10T01:08:28.520Z,1025.93
2016-10-10T01:09:28.530Z,1025.94
2016-10-10T01:10:28.549Z,1025.94
2016-10-10T01:11:28.565Z,1025.92
2016-10-10T01:12:28.581Z,1025.9
2016-10-10T01:13:28.597Z,1025.94
2016-10-10T01:14:28.622Z,1025.97
2016-10-10T01:15:28.629Z,1025.94
2016-10-10T01:16:28.652Z,1025.94
2016-10-10T01:17:28.659Z,1025.95
2016-10-10T01:18:28.685Z,1025.98
2016-10-10T01:19:28.696Z,1025.95
2016-10-10T01:20:28.712Z,1025.95
2016-10-10T01:21:28.741Z,1025.97
2016-10-10T01:22:28.754Z,1025.94
2016-10-10T01:23:28.760Z,1025.98
2016-10-10T01:24:28.780Z,1025.94
2016-10-10T01:25:28.802Z,1025.94
2016-10-10T01:26:28.812Z,1025.95
2016-10-10T01:27:28.828Z,1025.93
2016-10-10T01:28:28.850Z,1025.95
2016-10-10T01:29:28.857Z,1025.92
2016-10-10T01:30:28.955Z,1025.96
2016-10-10T01:31:28.895Z,1025.96
2016-10-10T01:32:29.010Z,1025.97
2016-10-10T01:33:28.936Z,1025.93
2016-10-10T01:34:28.943Z,1025.91
2016-10-10T01:35:28.962Z,1025.93
2016-10-10T01:36:28.981Z,1025.93
2016-10-10T01:37:29.000Z,1025.92
2016-10-10T01:38:29.010Z,1025.93
2016-10-10T01:39:29.026Z,1025.93
2016-10-10T01:40:29.052Z,1025.92
2016-10-10T01:41:29.056Z,1025.95
2016-10-10T01:42:29.082Z,1025.94
2016-10-10T01:43:29.090Z,1025.92
2016-10-10T01:44:29.109Z,1025.88
2016-10-10T01:45:29.221Z,1025.88
2016-10-10T01:46:29.138Z,1025.84
2016-10-10T01:47:29.159Z,1025.91
2016-10-10T01:48:29.167Z,1025.91
2016-10-10T01:49:29.190Z,1025.85
2016-10-10T01:50:29.202Z,1025.89
2016-10-10T01:51:29.223Z,1025.89
2016-10-10T01:52:29.235Z,1025.89
2016-10-10T01:53:29.250Z,1025.88
2016-10-10T01:54:29.270Z,1025.86
2016-10-10T01:55:29.292Z,1025.84
2016-10-10T01:56:29.353Z,1025.82
2016-10-10T01:57:29.317Z,1025.83
2016-10-10T01:58:29.488Z,1025.85
2016-10-10T01:59:29.349Z,1025.86
2016-10-10T02:00:29.417Z,1025.85
2016-10-10T02:01:29.387Z,1025.87
2016-10-10T02:02:29.401Z,1025.87
2016-10-10T02:03:29.420Z,1025.83
2016-10-10T02:04:29.433Z,1025.84
2016-10-10T02:05:29.454Z,1025.81
2016-10-10T02:06:29.672Z,1025.8
2016-10-10T02:07:29.491Z,1025.77
2016-10-10T02:08:29.500Z,1025.73
2016-10-10T02:09:29.522Z,1025.74
2016-10-10T02:10:29.539Z,1025.77
2016-10-10T02:11:29.648Z,1025.75
2016-10-10T02:12:29.573Z,1025.73
2016-10-10T02:13:29.616Z,1025.76
2016-10-10T02:14:29.600Z,1025.72
2016-10-10T02:15:29.619Z,1025.72
2016-10-10T02:16:29.680Z,1025.7
2016-10-10T02:17:29.644Z,1025.69
2016-10-10T02:18:29.668Z,1025.68
2016-10-10T02:19:29.680Z,1025.71
2016-10-10T02:20:29.696Z,1025.72
2016-10-10T02:21:29.705Z,1025.73
2016-10-10T02:22:29.728Z,1025.74
2016-10-10T02:23:29.750Z,1025.71
2016-10-10T02:24:29.759Z,1025.77
2016-10-10T02:25:29.780Z,1025.7
2016-10-10T02:26:29.795Z,1025.74
2016-10-10T02:27:29.811Z,1025.69
2016-10-10T02:28:29.832Z,1025.69
2016-10-10T02:29:29.851Z,1025.67
2016-10-10T02:30:29.859Z,1025.64
2016-10-10T02:31:29.875Z,1025.62
2016-10-10T02:32:29.888Z,1025.65
2016-10-10T02:33:29.914Z,1025.61
2016-10-10T02:34:29.923Z,1025.61
2016-10-10T02:35:29.936Z,1025.58
2016-10-10T02:36:29.955Z,1025.56
2016-10-10T02:37:29.968Z,1025.57
2016-10-10T02:38:29.984Z,1025.56
2016-10-10T02:39:30.010Z,1025.56
2016-10-10T02:40:30.021Z,1025.6
2016-10-10T02:41:30.039Z,1025.56
2016-10-10T02:42:30.051Z,1025.54
2016-10-10T02:43:30.070Z,1025.55
2016-10-10T02:44:30.080Z,1025.56
2016-10-10T02:45:30.101Z,1025.57
2016-10-10T02:46:30.119Z,1025.54
2016-10-10T02:47:30.128Z,1025.55
2016-10-10T02:48:30.150Z,1025.53
2016-10-10T02:49:30.160Z,1025.56
2016-10-10T02:50:30.177Z,1025.52
2016-10-10T02:51:30.200Z,1025.52
2016-10-10T02:52:30.208Z,1025.54
2016-10-10T02:53:30.224Z,1025.53
2016-10-10T02:54:30.240Z,1025.57
2016-10-10T02:55:30.256Z,1025.54
2016-10-10T02:56:30.272Z,1025.58
2016-10-10T02:57:30.293Z,1025.57
2016-10-10T02:58:30.301Z,1025.59
2016-10-10T02:59:30.320Z,1025.63
2016-10-10T03:00:30.349Z,1025.58
2016-10-10T03:01:30.369Z,1025.58
2016-10-10T03:02:30.370Z,1025.58
2016-10-10T03:03:30.389Z,1025.55
2016-10-10T03:04:30.411Z,1025.54
2016-10-10T03:05:30.413Z,1025.56
2016-10-10T03:06:30.434Z,1025.6
2016-10-10T03:07:30.451Z,1025.57
2016-10-10T03:08:30.470Z,1025.6
2016-10-10T03:09:30.480Z,1025.57
2016-10-10T03:10:30.501Z,1025.58
2016-10-10T03:11:30.509Z,1025.56
2016-10-10T03:12:30.530Z,1025.59
2016-10-10T03:13:30.550Z,1025.56
2016-10-10T03:14:30.562Z,1025.56
2016-10-10T03:15:30.571Z,1025.58
2016-10-10T03:16:30.589Z,1025.54
2016-10-10T03:17:30.608Z,1025.56
2016-10-10T03:18:30.629Z,1025.6
2016-10-10T03:19:30.642Z,1025.56
2016-10-10T03:20:30.661Z,1025.59
2016-10-10T03:21:30.669Z,1025.55
2016-10-10T03:22:30.688Z,1025.56
2016-10-10T03:23:30.712Z,1025.59
2016-10-10T03:24:30.719Z,1025.6
2016-10-10T03:25:30.739Z,1025.59
2016-10-10T03:26:30.757Z,1025.56
2016-10-10T03:27:30.765Z,1025.57
2016-10-10T03:28:30.802Z,1025.59
2016-10-10T03:29:30.799Z,1025.59
2016-10-10T03:30:30.815Z,1025.58
2016-10-10T03:31:30.831Z,1025.59
2016-10-10T03:32:30.847Z,1025.56
2016-10-10T03:33:30.866Z,1025.57
2016-10-10T03:34:30.876Z,1025.54
2016-10-10T03:35:30.903Z,1025.56
2016-10-10T03:36:30.906Z,1025.54
2016-10-10T03:37:30.927Z,1025.54
2016-10-10T03:38:30.943Z,1025.55
2016-10-10T03:39:30.957Z,1025.53
2016-10-10T03:40:30.967Z,1025.57
2016-10-10T03:41:30.988Z,1025.52
2016-10-10T03:42:30.996Z,1025.53
2016-10-10T03:43:31.016Z,1025.53
2016-10-10T03:44:31.031Z,1025.54
2016-10-10T03:45:31.048Z,1025.54
2016-10-10T03:46:31.071Z,1025.52
2016-10-10T03:47:31.076Z,1025.48
2016-10-10T03:48:31.130Z,1025.48
2016-10-10T03:49:31.111Z,1025.49
2016-10-10T03:50:31.125Z,1025.52
2016-10-10T03:51:31.136Z,1025.51
2016-10-10T03:52:31.213Z,1025.47
2016-10-10T03:53:31.167Z,1025.45
2016-10-10T03:54:31.180Z,1025.48
2016-10-10T03:55:31.210Z,1025.46
2016-10-10T03:56:31.217Z,1025.45
2016-10-10T03:57:31.230Z,1025.47
2016-10-10T03:58:31.248Z,1025.46
2016-10-10T03:59:31.265Z,1025.44
2016-10-10T04:00:31.279Z,1025.46
2016-10-10T04:01:31.290Z,1025.44
2016-10-10T04:02:31.311Z,1025.43
2016-10-10T04:03:31.345Z,1025.44
2016-10-10T04:04:31.340Z,1025.44
2016-10-10T04:05:31.354Z,1025.45
2016-10-10T04:06:31.364Z,1025.45
2016-10-10T04:07:31.444Z,1025.42
2016-10-10T04:08:31.399Z,1025.42
2016-10-10T04:09:31.420Z,1025.42
2016-10-10T04:10:31.429Z,1025.46
2016-10-10T04:11:31.444Z,1025.48
2016-10-10T04:12:31.462Z,1025.46
2016-10-10T04:13:31.479Z,1025.47
2016-10-10T04:14:31.495Z,1025.52
2016-10-10T04:15:31.511Z,1025.51
2016-10-10T04:16:31.527Z,1025.55
2016-10-10T04:17:31.542Z,1025.54
2016-10-10T04:18:31.561Z,1025.49
2016-10-10T04:19:31.570Z,1025.54
2016-10-10T04:20:31.622Z,1025.54
2016-10-10T04:21:31.601Z,1025.49
2016-10-10T04:22:31.617Z,1025.49
2016-10-10T04:23:31.630Z,1025.47
2016-10-10T04:24:31.649Z,1025.52
2016-10-10T04:25:31.662Z,1025.54
2016-10-10T04:26:31.679Z,1025.59
2016-10-10T04:27:31.699Z,1025.58
2016-10-10T04:28:31.712Z,1025.51
2016-10-10T04:29:31.723Z,1025.53
2016-10-10T04:30:31.741Z,1025.54
2016-10-10T04:31:31.756Z,1025.58
2016-10-10T04:32:31.771Z,1025.56
2016-10-10T04:33:31.849Z,1025.54
2016-10-10T04:34:31.808Z,1025.57
2016-10-10T04:35:31.820Z,1025.57
2016-10-10T04:36:31.835Z,1025.55
2016-10-10T04:37:31.900Z,1025.57
2016-10-10T04:38:31.872Z,1025.57
2016-10-10T04:39:31.879Z,1025.58
2016-10-10T04:40:31.908Z,1025.58
2016-10-10T04:41:31.908Z,1025.61
2016-10-10T04:42:31.924Z,1025.59
2016-10-10T04:43:31.944Z,1025.56
2016-10-10T04:44:31.959Z,1025.6
2016-10-10T04:45:31.969Z,1025.57
2016-10-10T04:46:31.990Z,1025.59
2016-10-10T04:47:32.006Z,1025.59
2016-10-10T04:48:32.023Z,1025.56
2016-10-10T04:49:32.036Z,1025.57
2016-10-10T04:50:32.055Z,1025.59
2016-10-10T04:51:32.070Z,1025.56
2016-10-10T04:52:32.081Z,1025.57
2016-10-10T04:53:32.100Z,1025.54
2016-10-10T04:54:32.119Z,1025.53
2016-10-10T04:55:32.125Z,1025.49
2016-10-10T04:56:32.139Z,1025.53
2016-10-10T04:57:32.160Z,1025.58
2016-10-10T04:58:32.182Z,1025.55
2016-10-10T04:59:32.192Z,1025.54
2016-10-10T05:00:32.207Z,1025.55
2016-10-10T05:01:32.219Z,1025.49
2016-10-10T05:02:32.236Z,1025.53
2016-10-10T05:03:32.249Z,1025.56
2016-10-10T05:04:32.265Z,1025.52
2016-10-10T05:05:32.280Z,1025.56
2016-10-10T05:06:32.299Z,1025.55
2016-10-10T05:07:32.313Z,1025.57
2016-10-10T05:08:32.326Z,1025.58
2016-10-10T05:09:32.344Z,1025.56
2016-10-10T05:10:32.354Z,1025.59
2016-10-10T05:11:32.375Z,1025.57
2016-10-10T05:12:32.388Z,1025.58
2016-10-10T05:13:32.401Z,1025.59
2016-10-10T05:14:32.422Z,1025.6
2016-10-10T05:15:32.443Z,1025.61
2016-10-10T05:16:32.449Z,1025.61
2016-10-10T05:17:32.468Z,1025.58
2016-10-10T05:18:32.492Z,1025.58
2016-10-10T05:19:32.502Z,1025.59
2016-10-10T05:20:32.521Z,1025.59
2016-10-10T05:21:32.530Z,1025.59
2016-10-10T05:22:32.542Z,1025.57
2016-10-10T05:23:32.564Z,1025.54
2016-10-10T05:24:32.577Z,1025.52
2016-10-10T05:25:32.601Z,1025.57
2016-10-10T05:26:32.611Z,1025.56
2016-10-10T05:27:32.629Z,1025.55
2016-10-10T05:28:32.638Z,1025.52
2016-10-10T05:29:32.662Z,1025.52
2016-10-10T05:30:32.688Z,1025.55
2016-10-10T05:31:32.689Z,1025.53
2016-10-10T05:32:32.708Z,1025.5
2016-10-10T05:33:32.718Z,1025.55
2016-10-10T05:34:32.742Z,1025.52
2016-10-10T05:35:32.750Z,1025.52
2016-10-10T05:36:32.771Z,1025.52
2016-10-10T05:37:32.785Z,1025.53
2016-10-10T05:38:33.000Z,1025.59
2016-10-10T05:39:32.813Z,1025.57
2016-10-10T05:40:32.825Z,1025.57
2016-10-10T05:41:32.845Z,1025.62
2016-10-10T05:42:32.859Z,1025.56
2016-10-10T05:43:32.880Z,1025.58
2016-10-10T05:44:32.899Z,1025.58
2016-10-10T05:45:32.910Z,1025.61
2016-10-10T05:46:32.931Z,1025.56
2016-10-10T05:47:32.948Z,1025.58
2016-10-10T05:48:32.960Z,1025.57
2016-10-10T05:49:32.979Z,1025.56
2016-10-10T05:50:32.987Z,1025.55
2016-10-10T05:51:33.006Z,1025.59
2016-10-10T05:52:33.019Z,1025.6
2016-10-10T05:53:33.038Z,1025.58
2016-10-10T05:54:33.068Z,1025.57
2016-10-10T05:55:33.081Z,1025.6
2016-10-10T05:56:33.086Z,1025.56
2016-10-10T05:57:33.204Z,1025.57
2016-10-10T05:58:33.115Z,1025.62
2016-10-10T05:59:33.136Z,1025.59
2016-10-10T06:00:33.152Z,1025.65
2016-10-10T06:01:33.165Z,1025.67
2016-10-10T06:02:33.180Z,1025.67
2016-10-10T06:03:33.198Z,1025.67
2016-10-10T06:04:33.216Z,1025.72
2016-10-10T06:05:33.230Z,1025.72
2016-10-10T06:06:33.254Z,1025.72
2016-10-10T06:07:33.267Z,1025.71
2016-10-10T06:08:33.355Z,1025.7
2016-10-10T06:09:33.294Z,1025.69
2016-10-10T06:10:33.392Z,1025.73
2016-10-10T06:11:33.328Z,1025.74
2016-10-10T06:12:33.347Z,1025.75
2016-10-10T06:13:33.360Z,1025.78
2016-10-10T06:14:33.377Z,1025.78
2016-10-10T06:15:33.387Z,1025.75
2016-10-10T06:16:33.412Z,1025.77
2016-10-10T06:17:33.424Z,1025.77
2016-10-10T06:18:33.440Z,1025.75
2016-10-10T06:19:33.458Z,1025.71
2016-10-10T06:20:33.474Z,1025.75
2016-10-10T06:21:33.486Z,1025.78
2016-10-10T06:22:33.499Z,1025.77
2016-10-10T06:23:33.518Z,1025.75
2016-10-10T06:24:33.537Z,1025.8
2016-10-10T06:25:33.553Z,1025.78
2016-10-10T06:26:33.566Z,1025.78
2016-10-10T06:27:33.580Z,1025.8
2016-10-10T06:28:33.600Z,1025.82
2016-10-10T06:29:33.629Z,1025.83
2016-10-10T06:30:33.630Z,1025.85
2016-10-10T06:31:33.650Z,1025.86
2016-10-10T06:32:33.658Z,1025.88
2016-10-10T06:33:33.683Z,1025.86
2016-10-10T06:34:33.697Z,1025.82
2016-10-10T06:35:33.715Z,1025.85
2016-10-10T06:36:33.735Z,1025.84
2016-10-10T06:37:33.747Z,1025.82
2016-10-10T06:38:33.771Z,1025.8
2016-10-10T06:39:33.781Z,1025.82
2016-10-10T06:40:33.802Z,1025.81
2016-10-10T06:41:33.805Z,1025.77
2016-10-10T06:42:33.827Z,1025.81
2016-10-10T06:43:33.849Z,1025.82
2016-10-10T06:44:33.864Z,1025.81
2016-10-10T06:45:34.080Z,1025.8
2016-10-10T06:46:33.897Z,1025.81
2016-10-10T06:47:33.917Z,1025.8
2016-10-10T06:48:33.933Z,1025.85
2016-10-10T06:49:33.944Z,1025.82
2016-10-10T06:50:33.969Z,1025.84
2016-10-10T06:51:33.979Z,1025.88
2016-10-10T06:52:33.989Z,1025.86
2016-10-10T06:53:34.019Z,1025.87
2016-10-10T06:54:34.026Z,1025.85
2016-10-10T06:55:34.048Z,1025.89
2016-10-10T06:56:34.064Z,1025.87
2016-10-10T06:57:34.084Z,1025.86
2016-10-10T06:58:34.097Z,1025.86
2016-10-10T06:59:34.122Z,1025.85
2016-10-10T07:00:34.126Z,1025.88
2016-10-10T07:01:34.142Z,1025.88
2016-10-10T07:02:34.172Z,1025.88
2016-10-10T07:03:34.175Z,1025.86
2016-10-10T07:04:34.194Z,1025.9
2016-10-10T07:05:34.216Z,1025.88
2016-10-10T07:06:34.237Z,1025.84
2016-10-10T07:07:34.247Z,1025.87
2016-10-10T07:08:34.267Z,1025.86
2016-10-10T07:09:34.283Z,1025.88
2016-10-10T07:10:34.305Z,1025.91
2016-10-10T07:11:34.319Z,1025.87
2016-10-10T07:12:34.334Z,1025.88
2016-10-10T07:13:34.606Z,1025.86
2016-10-10T07:14:34.618Z,1025.85
2016-10-10T07:15:34.640Z,1025.9
2016-10-10T07:16:34.409Z,1025.85
2016-10-10T07:17:34.672Z,1025.86
2016-10-10T07:18:34.643Z,1025.85
2016-10-10T07:19:34.654Z,1025.85
2016-10-10T07:20:34.670Z,1025.85
2016-10-10T07:21:34.686Z,1025.86
2016-10-10T07:22:34.802Z,1025.85
2016-10-10T07:23:34.679Z,1025.89
2016-10-10T07:24:34.694Z,1025.85
2016-10-10T07:25:34.710Z,1025.88
2016-10-10T07:26:34.576Z,1025.9
2016-10-10T07:27:34.694Z,1025.9
2016-10-10T07:28:34.717Z,1025.89
2016-10-10T07:29:34.729Z,1025.9
2016-10-10T07:30:35.316Z,1025.89
2016-10-10T07:31:34.720Z,1025.89
2016-10-10T07:32:34.736Z,1025.84
2016-10-10T07:33:34.797Z,1025.89
2016-10-10T07:34:34.723Z,1025.87
2016-10-10T07:35:34.738Z,1025.87
2016-10-10T07:36:34.759Z,1025.93
2016-10-10T07:37:34.771Z,1025.93
2016-10-10T07:38:34.790Z,1025.95
2016-10-10T07:39:34.803Z,1025.98
2016-10-10T07:40:34.835Z,1025.99
2016-10-10T07:41:34.852Z,1026.02
2016-10-10T07:42:34.856Z,1026.03
2016-10-10T07:43:34.926Z,1025.98
2016-10-10T07:44:34.912Z,1026.01
2016-10-10T07:45:34.916Z,1026.01
2016-10-10T07:46:35.131Z,1026
2016-10-10T07:47:34.952Z,1025.97
2016-10-10T07:48:34.965Z,1026.01
2016-10-10T07:49:34.989Z,1026.01
2016-10-10T07:50:35.011Z,1025.96
2016-10-10T07:51:35.028Z,1025.99
2016-10-10T07:52:35.050Z,1026
2016-10-10T07:53:35.057Z,1025.98
2016-10-10T07:54:35.077Z,1026.05
2016-10-10T07:55:35.095Z,1026.02
2016-10-10T07:56:35.118Z,1026.04
2016-10-10T07:57:35.142Z,1026.05
2016-10-10T07:58:35.305Z,1026.07
2016-10-10T07:59:35.170Z,1026.07
2016-10-10T08:00:35.200Z,1026.04
2016-10-10T08:01:35.215Z,1026.07
2016-10-10T08:02:35.230Z,1026.05
2016-10-10T08:03:35.243Z,1026.06
2016-10-10T08:04:35.271Z,1026.11
2016-10-10T08:05:35.293Z,1026.09
2016-10-10T08:06:35.308Z,1026.09
2016-10-10T08:07:35.319Z,1026.09
2016-10-10T08:08:35.341Z,1026.07
2016-10-10T08:09:35.354Z,1026.06
2016-10-10T08:10:35.375Z,1026.1
2016-10-10T08:11:35.396Z,1026.07
2016-10-10T08:12:35.418Z,1026.1
2016-10-10T08:13:35.485Z,1026.11
2016-10-10T08:14:35.459Z,1026.09
2016-10-10T08:15:35.474Z,1026.1
2016-10-10T08:16:35.500Z,1026.06
2016-10-10T08:17:35.510Z,1026.07
2016-10-10T08:18:35.532Z,1026.12
2016-10-10T08:19:35.547Z,1026.08
2016-10-10T08:20:35.566Z,1026.09
2016-10-10T08:21:35.590Z,1026.08
2016-10-10T08:22:35.617Z,1026.03
2016-10-10T08:23:35.633Z,1026.05
2016-10-10T08:24:35.646Z,1026.06
2016-10-10T08:25:35.668Z,1026.08
2016-10-10T08:26:35.732Z,1026.09
2016-10-10T08:27:35.708Z,1026.09
2016-10-10T08:28:35.726Z,1026.06
2016-10-10T08:29:35.753Z,1026.05
2016-10-10T08:30:36.012Z,1026.03
2016-10-10T08:31:35.782Z,1026.04
2016-10-10T08:32:35.801Z,1026.05
2016-10-10T08:33:35.828Z,1026.06
2016-10-10T08:34:35.840Z,1026.05
2016-10-10T08:35:35.863Z,1026.09
2016-10-10T08:36:35.874Z,1026.06
2016-10-10T08:37:35.958Z,1026.06
2016-10-10T08:38:35.915Z,1026.02
2016-10-10T08:39:35.943Z,1026.04
2016-10-10T08:40:35.956Z,1026.04
2016-10-10T08:41:35.972Z,1026.04
2016-10-10T08:42:35.998Z,1026.01
2016-10-10T08:43:36.016Z,1026
2016-10-10T08:44:36.030Z,1026.01
2016-10-10T08:45:36.059Z,1025.97
2016-10-10T08:46:36.072Z,1026.03
2016-10-10T08:47:36.097Z,1026.01
2016-10-10T08:48:36.115Z,1025.99
2016-10-10T08:49:36.139Z,1026.01
2016-10-10T08:50:36.156Z,1026.04
2016-10-10T08:51:36.177Z,1026.06
2016-10-10T08:52:36.193Z,1026.07
2016-10-10T08:53:36.227Z,1026.07
2016-10-10T08:54:36.238Z,1026.06
2016-10-10T08:55:36.255Z,1026.07
2016-10-10T08:56:36.278Z,1026.06
2016-10-10T08:57:36.292Z,1026.06
2016-10-10T08:58:36.321Z,1026.05
2016-10-10T08:59:36.339Z,1026.04
2016-10-10T09:00:36.366Z,1026.04
2016-10-10T09:01:36.373Z,1026.03
2016-10-10T09:02:36.414Z,1026
2016-10-10T09:03:36.426Z,1026.03
2016-10-10T09:04:36.438Z,1026.06
2016-10-10T09:05:36.460Z,1026.01
2016-10-10T09:06:36.480Z,1026.04
2016-10-10T09:07:36.499Z,1026.04
2016-10-10T09:08:36.517Z,1026.02
2016-10-10T09:09:36.539Z,1026.01
2016-10-10T09:10:36.560Z,1025.99
2016-10-10T09:11:36.584Z,1025.93
2016-10-10T09:12:36.601Z,1025.91
2016-10-10T09:13:36.636Z,1025.95
2016-10-10T09:14:36.642Z,1025.9
2016-10-10T09:15:36.664Z,1025.91
2016-10-10T09:16:36.688Z,1025.9
2016-10-10T09:17:36.707Z,1025.86
2016-10-10T09:18:36.733Z,1025.92
2016-10-10T09:19:36.756Z,1025.9
2016-10-10T09:20:36.770Z,1025.9
2016-10-10T09:21:36.793Z,1025.91
2016-10-10T09:22:36.820Z,1025.9
2016-10-10T09:23:36.834Z,1025.96
2016-10-10T09:24:36.856Z,1025.93
2016-10-10T09:25:36.873Z,1025.94
2016-10-10T09:26:36.900Z,1025.95
2016-10-10T09:27:36.925Z,1025.91
2016-10-10T09:28:36.946Z,1025.96
2016-10-10T09:29:36.959Z,1025.88
2016-10-10T09:30:36.978Z,1025.85
2016-10-10T09:31:37.007Z,1025.83
2016-10-10T09:32:37.026Z,1025.8
2016-10-10T09:33:37.048Z,1025.82
2016-10-10T09:34:37.071Z,1025.87
2016-10-10T09:35:37.089Z,1025.91
2016-10-10T09:36:37.106Z,1025.86
2016-10-10T09:37:37.131Z,1025.91
2016-10-10T09:38:37.249Z,1025.88
2016-10-10T09:39:37.168Z,1025.91
2016-10-10T09:40:37.189Z,1025.86
2016-10-10T09:41:37.210Z,1025.9
2016-10-10T09:42:37.233Z,1025.94
2016-10-10T09:43:37.249Z,1025.9
2016-10-10T09:44:37.267Z,1025.94
2016-10-10T09:45:37.297Z,1025.93
2016-10-10T09:46:37.316Z,1025.95
2016-10-10T09:47:37.327Z,1025.94
2016-10-10T09:48:37.355Z,1025.93
2016-10-10T09:49:37.481Z,1025.92
2016-10-10T09:50:37.388Z,1025.92
2016-10-10T09:51:37.510Z,1025.88
2016-10-10T09:52:37.434Z,1025.89
2016-10-10T09:53:37.458Z,1025.86
2016-10-10T09:54:37.468Z,1025.89
2016-10-10T09:55:37.487Z,1025.88
2016-10-10T09:56:37.505Z,1025.86
2016-10-10T09:57:37.527Z,1025.88
2016-10-10T09:58:37.552Z,1025.9
2016-10-10T09:59:37.567Z,1025.85
2016-10-10T10:00:37.589Z,1025.87
2016-10-10T10:01:37.608Z,1025.84
2016-10-10T10:02:37.637Z,1025.85
2016-10-10T10:03:37.646Z,1025.8
2016-10-10T10:04:37.819Z,1025.79
2016-10-10T10:05:37.687Z,1025.78
2016-10-10T10:06:37.709Z,1025.77
2016-10-10T10:07:37.737Z,1025.78
2016-10-10T10:08:37.745Z,1025.79
2016-10-10T10:09:37.764Z,1025.77
2016-10-10T10:10:37.784Z,1025.8
2016-10-10T10:11:37.806Z,1025.78
2016-10-10T10:12:37.828Z,1025.8
2016-10-10T10:13:37.843Z,1025.81
2016-10-10T10:14:37.869Z,1025.77
2016-10-10T10:15:37.892Z,1025.78
2016-10-10T10:16:37.908Z,1025.84
2016-10-10T10:17:37.929Z,1025.79
2016-10-10T10:18:37.938Z,1025.76
2016-10-10T10:19:37.958Z,1025.73
2016-10-10T10:20:37.978Z,1025.69
2016-10-10T10:21:37.998Z,1025.72
2016-10-10T10:22:38.019Z,1025.7
2016-10-10T10:23:38.036Z,1025.7
2016-10-10T10:24:38.062Z,1025.68
2016-10-10T10:25:38.074Z,1025.64
2016-10-10T10:26:38.096Z,1025.68
2016-10-10T10:27:38.116Z,1025.63
2016-10-10T10:28:38.138Z,1025.62
2016-10-10T10:29:38.153Z,1025.64
2016-10-10T10:30:38.173Z,1025.61
2016-10-10T10:31:38.193Z,1025.64
2016-10-10T10:32:38.211Z,1025.63
2016-10-10T10:33:38.234Z,1025.62
2016-10-10T10:34:38.256Z,1025.64
2016-10-10T10:35:38.275Z,1025.64
2016-10-10T10:36:38.296Z,1025.64
2016-10-10T10:37:38.312Z,1025.6
2016-10-10T10:38:38.336Z,1025.6
2016-10-10T10:39:38.397Z,1025.59
2016-10-10T10:40:38.377Z,1025.56
2016-10-10T10:41:38.392Z,1025.58
2016-10-10T10:42:38.414Z,1025.65
2016-10-10T10:43:38.433Z,1025.62
2016-10-10T10:44:38.446Z,1025.63
2016-10-10T10:45:38.465Z,1025.61
2016-10-10T10:46:38.486Z,1025.62
2016-10-10T10:47:38.520Z,1025.63
2016-10-10T10:48:38.539Z,1025.66
2016-10-10T10:49:38.549Z,1025.58
2016-10-10T10:50:38.574Z,1025.61
2016-10-10T10:51:38.598Z,1025.61
2016-10-10T10:52:38.619Z,1025.65
2016-10-10T10:53:38.626Z,1025.67
2016-10-10T10:54:38.799Z,1025.62
2016-10-10T10:55:38.674Z,1025.67
2016-10-10T10:56:38.693Z,1025.64
2016-10-10T10:57:38.716Z,1025.63
2016-10-10T10:58:38.734Z,1025.64
2016-10-10T10:59:38.755Z,1025.57
2016-10-10T11:00:38.773Z,1025.6
2016-10-10T11:01:38.797Z,1025.55
2016-10-10T11:02:38.820Z,1025.54
2016-10-10T11:03:38.844Z,1025.55
2016-10-10T11:04:38.868Z,1025.48
2016-10-10T11:05:38.884Z,1025.53
2016-10-10T11:06:38.906Z,1025.51
2016-10-10T11:07:38.935Z,1025.48
2016-10-10T11:08:38.949Z,1025.46
2016-10-10T11:09:38.978Z,1025.48
2016-10-10T11:10:38.994Z,1025.49
2016-10-10T11:11:39.024Z,1025.49
2016-10-10T11:12:39.051Z,1025.49
2016-10-10T11:13:39.064Z,1025.47
2016-10-10T11:14:39.076Z,1025.53
2016-10-10T11:15:39.106Z,1025.53
2016-10-10T11:16:39.128Z,1025.49
2016-10-10T11:17:39.154Z,1025.46
2016-10-10T11:18:39.170Z,1025.43
2016-10-10T11:19:39.198Z,1025.4
2016-10-10T11:20:39.221Z,1025.47
2016-10-10T11:21:39.240Z,1025.41
2016-10-10T11:22:39.266Z,1025.35
2016-10-10T11:23:39.285Z,1025.38
2016-10-10T11:24:39.316Z,1025.33
2016-10-10T11:25:39.330Z,1025.37
2016-10-10T11:26:39.361Z,1025.39
2016-10-10T11:27:39.504Z,1025.38
2016-10-10T11:28:39.397Z,1025.39
2016-10-10T11:29:39.525Z,1025.37
2016-10-10T11:30:39.441Z,1025.37
2016-10-10T11:31:39.464Z,1025.35
2016-10-10T11:32:39.485Z,1025.4
2016-10-10T11:33:39.512Z,1025.44
2016-10-10T11:34:39.535Z,1025.41
2016-10-10T11:35:39.556Z,1025.36
2016-10-10T11:36:39.586Z,1025.36
2016-10-10T11:37:39.596Z,1025.32
2016-10-10T11:38:39.629Z,1025.36
2016-10-10T11:39:39.643Z,1025.34
2016-10-10T11:40:39.737Z,1025.33
2016-10-10T11:41:39.685Z,1025.35
2016-10-10T11:42:39.707Z,1025.33
2016-10-10T11:43:39.724Z,1025.31
2016-10-10T11:44:39.752Z,1025.33
2016-10-10T11:45:39.777Z,1025.29
2016-10-10T11:46:39.795Z,1025.32
2016-10-10T11:47:39.814Z,1025.28
2016-10-10T11:48:39.839Z,1025.33
2016-10-10T11:49:39.864Z,1025.29
2016-10-10T11:50:39.887Z,1025.27
2016-10-10T11:51:39.900Z,1025.27
2016-10-10T11:52:39.925Z,1025.3
2016-10-10T11:53:40.046Z,1025.32
2016-10-10T11:54:39.967Z,1025.27
2016-10-10T11:55:39.987Z,1025.24
2016-10-10T11:56:40.006Z,1025.25
2016-10-10T11:57:40.046Z,1025.27
2016-10-10T11:58:40.064Z,1025.25
2016-10-10T11:59:40.076Z,1025.24
2016-10-10T12:00:40.095Z,1025.25
2016-10-10T12:01:40.114Z,1025.24
2016-10-10T12:02:40.141Z,1025.18
2016-10-10T12:03:40.168Z,1025.18
2016-10-10T12:04:40.185Z,1025.14
2016-10-10T12:05:40.205Z,1025.17
2016-10-10T12:06:40.227Z,1025.14
2016-10-10T12:07:40.247Z,1025.14